Time,TemperatureF,DewpointF,PressureIn,WindDirection,WindDirectionDegrees,WindSpeedMPH,WindSpeedGustMPH,Humidity,HourlyPrecipIn,Conditions,Clouds,dailyrainin,SoftwareType,DateUTC
2013-03-10 00:05:00,55.0,45.0,29.58,SSW,209,0.0,-999.0,69,-99.99,,,0.01,weatherlink.com 1.10,2013-03-10 06:05:00,
2013-03-10 00:20:00,53.5,46.0,29.58,SSW,209,0.0,-999.0,77,-99.99,,,0.02,weatherlink.com 1.10,2013-03-10 06:20:00,
2013-03-10 00:36:00,52.6,47.0,29.57,SSW,209,0.0,-999.0,81,-99.99,,,0.02,weatherlink.com 1.10,2013-03-10 06:36:00,
2013-03-10 00:51:00,52.8,48.0,29.57,SSW,209,0.0,-999.0,83,-99.99,,,0.02,weatherlink.com 1.10,2013-03-10 06:51:00,
2013-03-10 01:06:00,53.1,47.0,29.57,SSW,209,0.0,-999.0,81,-99.99,,,0.02,weatherlink.com 1.10,2013-03-10 07:06:00,
2013-03-10 01:21:00,53.9,48.0,29.56,SSW,209,0.0,-999.0,80,-99.99,,,0.04,weatherlink.com 1.10,2013-03-10 07:21:00,
2013-03-10 01:36:00,53.5,49.0,29.59,SSW,209,1.0,-999.0,85,-99.99,,,0.04,weatherlink.com 1.10,2013-03-10 07:36:00,
2013-03-10 01:51:00,52.9,50.0,29.61,SE,134,0.0,-999.0,88,-99.99,,,0.09,weatherlink.com 1.10,2013-03-10 07:51:00,
2013-03-10 03:06:00,52.5,50.0,29.58,SE,134,0.0,-999.0,90,-99.99,,,0.09,weatherlink.com 1.10,2013-03-10 08:06:00,
2013-03-10 03:21:00,52.2,50.0,29.57,SE,134,0.0,-999.0,92,-99.99,,,0.10,weatherlink.com 1.10,2013-03-10 08:21:00,
2013-03-10 03:36:00,52.2,50.0,29.57,SE,134,0.0,-999.0,93,-99.99,,,0.13,weatherlink.com 1.10,2013-03-10 08:36:00,
2013-03-10 03:51:00,51.9,50.0,29.56,SE,134,0.0,-999.0,92,-99.99,,,0.14,weatherlink.com 1.10,2013-03-10 08:51:00,
2013-03-10 04:06:00,51.7,50.0,29.55,SE,134,0.0,-999.0,92,-99.99,,,0.15,weatherlink.com 1.10,2013-03-10 09:06:00,
2013-03-10 04:21:00,51.4,49.0,29.53,SE,134,0.0,-999.0,92,-99.99,,,0.15,weatherlink.com 1.10,2013-03-10 09:21:00,
2013-03-10 04:37:00,51.3,49.0,29.53,SE,134,0.0,-999.0,92,-99.99,,,0.16,weatherlink.com 1.10,2013-03-10 09:37:00,
2013-03-10 04:52:00,51.0,49.0,29.54,SE,134,0.0,-999.0,92,-99.99,,,0.17,weatherlink.com 1.10,2013-03-10 09:52:00,
2013-03-10 05:07:00,50.8,49.0,29.53,SE,134,0.0,-999.0,92,-99.99,,,0.17,weatherlink.com 1.10,2013-03-10 10:07:00,
2013-03-10 05:22:00,50.8,48.0,29.52,SE,134,0.0,-999.0,91,-99.99,,,0.17,weatherlink.com 1.10,2013-03-10 10:22:00,
2013-03-10 05:37:00,50.7,48.0,29.52,SE,134,1.0,-999.0,91,-99.99,,,0.17,weatherlink.com 1.10,2013-03-10 10:37:00,
2013-03-10 05:52:00,50.7,48.0,29.51,SSW,200,1.0,-999.0,91,-99.99,,,0.17,weatherlink.com 1.10,2013-03-10 10:52:00,
2013-03-10 06:07:00,51.1,48.0,29.51,SSW,200,0.0,-999.0,88,-99.99,,,0.17,weatherlink.com 1.10,2013-03-10 11:07:00,
2013-03-10 06:22:00,51.7,48.0,29.51,SSW,200,0.0,-999.0,86,-99.99,,,0.17,weatherlink.com 1.10,2013-03-10 11:22:00,
2013-03-10 06:37:00,52.5,48.0,29.51,SSW,200,0.0,-999.0,84,-99.99,,,0.17,weatherlink.com 1.10,2013-03-10 11:37:00,
2013-03-10 06:52:00,52.6,49.0,29.53,SSW,200,2.0,-999.0,86,-99.99,,,0.19,weatherlink.com 1.10,2013-03-10 11:52:00,
2013-03-10 07:07:00,52.5,50.0,29.54,SSW,207,1.0,-999.0,90,-99.99,,,0.23,weatherlink.com 1.10,2013-03-10 12:07:00,
2013-03-10 07:22:00,52.5,50.0,29.55,SW,236,1.0,-999.0,92,-99.99,,,0.27,weatherlink.com 1.10,2013-03-10 12:22:00,
2013-03-10 07:38:00,52.3,51.0,29.54,West,265,0.0,-999.0,94,-99.99,,,0.29,weatherlink.com 1.10,2013-03-10 12:38:00,
2013-03-10 07:53:00,52.3,52.0,29.54,West,265,0.0,-999.0,97,-99.99,,,0.30,weatherlink.com 1.10,2013-03-10 12:53:00,
2013-03-10 08:08:00,52.6,52.0,29.54,SW,223,0.0,-999.0,98,-99.99,,,0.30,weatherlink.com 1.10,2013-03-10 13:08:00,
2013-03-10 08:23:00,52.9,53.0,29.54,SSW,196,2.0,-999.0,100,-99.99,,,0.30,weatherlink.com 1.10,2013-03-10 13:23:00,
2013-03-10 08:38:00,53.2,53.0,29.54,SSW,196,0.0,-999.0,100,-99.99,,,0.31,weatherlink.com 1.10,2013-03-10 13:38:00,
2013-03-10 08:53:00,53.5,54.0,29.54,SSW,210,1.0,-999.0,100,-99.99,,,0.31,weatherlink.com 1.10,2013-03-10 13:53:00,
2013-03-10 09:08:00,53.6,54.0,29.54,SSW,210,0.0,-999.0,100,-99.99,,,0.31,weatherlink.com 1.10,2013-03-10 14:08:00,
2013-03-10 09:23:00,53.8,54.0,29.54,SSW,210,0.0,-999.0,100,-99.99,,,0.32,weatherlink.com 1.10,2013-03-10 14:23:00,
2013-03-10 09:38:00,54.1,54.0,29.53,SSW,210,0.0,-999.0,100,-99.99,,,0.33,weatherlink.com 1.10,2013-03-10 14:38:00,
2013-03-10 09:53:00,54.4,54.0,29.50,SSW,210,0.0,-999.0,100,-99.99,,,0.33,weatherlink.com 1.10,2013-03-10 14:53:00,
2013-03-10 10:08:00,54.1,54.0,29.50,SSW,210,0.0,-999.0,100,-99.99,,,0.34,weatherlink.com 1.10,2013-03-10 15:08:00,
2013-03-10 10:23:00,53.9,54.0,29.50,SSW,210,0.0,-999.0,100,-99.99,,,0.34,weatherlink.com 1.10,2013-03-10 15:23:00,
2013-03-10 10:38:00,53.8,54.0,29.51,SSW,210,0.0,-999.0,100,-99.99,,,0.36,weatherlink.com 1.10,2013-03-10 15:38:00,
2013-03-10 10:53:00,53.5,54.0,29.54,SSW,210,0.0,-999.0,100,-99.99,,,0.41,weatherlink.com 1.10,2013-03-10 15:53:00,
2013-03-10 11:09:00,53.3,53.0,29.54,SSW,210,0.0,-999.0,100,-99.99,,,0.47,weatherlink.com 1.10,2013-03-10 16:09:00,
2013-03-10 11:24:00,53.5,54.0,29.53,SSW,209,0.0,-999.0,100,-99.99,,,0.51,weatherlink.com 1.10,2013-03-10 16:24:00,
2013-03-10 11:39:00,53.6,54.0,29.51,SSW,209,0.0,-999.0,100,-99.99,,,0.53,weatherlink.com 1.10,2013-03-10 16:39:00,
2013-03-10 11:54:00,53.6,54.0,29.50,SSW,209,1.0,-999.0,100,-99.99,,,0.54,weatherlink.com 1.10,2013-03-10 16:54:00,
2013-03-10 12:09:00,52.9,53.0,29.50,WSW,254,3.0,-999.0,100,-99.99,,,0.55,weatherlink.com 1.10,2013-03-10 17:09:00,
2013-03-10 12:24:00,51.4,51.0,29.53,WSW,248,0.0,-999.0,100,-99.99,,,0.58,weatherlink.com 1.10,2013-03-10 17:24:00,
2013-03-10 12:39:00,51.1,51.0,29.52,SW,232,0.0,-999.0,100,-99.99,,,0.61,weatherlink.com 1.10,2013-03-10 17:39:00,
2013-03-10 12:54:00,51.3,51.0,29.52,SW,234,2.0,-999.0,100,-99.99,,,0.64,weatherlink.com 1.10,2013-03-10 17:54:00,
2013-03-10 13:09:00,51.1,51.0,29.50,SW,236,5.0,-999.0,100,-99.99,,,0.65,weatherlink.com 1.10,2013-03-10 18:09:00,
2013-03-10 13:24:00,50.8,51.0,29.54,SW,228,1.0,-999.0,100,-99.99,,,0.66,weatherlink.com 1.10,2013-03-10 18:24:00,
2013-03-10 13:39:00,50.5,51.0,29.54,SSW,200,2.0,-999.0,100,-99.99,,,0.69,weatherlink.com 1.10,2013-03-10 18:39:00,
2013-03-10 13:54:00,50.2,50.0,29.54,WSW,253,1.0,-999.0,100,-99.99,,,0.75,weatherlink.com 1.10,2013-03-10 18:54:00,
2013-03-10 14:09:00,50.1,50.0,29.54,SW,215,0.0,-999.0,100,-99.99,,,0.79,weatherlink.com 1.10,2013-03-10 19:09:00,
2013-03-10 14:25:00,50.2,50.0,29.52,SW,215,0.0,-999.0,100,-99.99,,,0.82,weatherlink.com 1.10,2013-03-10 19:25:00,
2013-03-10 14:40:00,50.4,50.0,29.50,SW,215,0.0,-999.0,100,-99.99,,,0.84,weatherlink.com 1.10,2013-03-10 19:40:00,
2013-03-10 14:55:00,50.5,51.0,29.49,SW,215,0.0,-999.0,100,-99.99,,,0.85,weatherlink.com 1.10,2013-03-10 19:55:00,
2013-03-10 15:10:00,50.2,50.0,29.45,SW,215,0.0,-999.0,100,-99.99,,,0.85,weatherlink.com 1.10,2013-03-10 20:10:00,
2013-03-10 15:25:00,49.9,50.0,29.44,ENE,72,0.0,-999.0,100,-99.99,,,0.87,weatherlink.com 1.10,2013-03-10 20:25:00,
2013-03-10 15:40:00,50.1,50.0,29.44,SW,231,1.0,-999.0,100,-99.99,,,0.87,weatherlink.com 1.10,2013-03-10 20:40:00,
2013-03-10 15:55:00,50.4,50.0,29.47,SW,230,0.0,-999.0,100,-99.99,,,0.88,weatherlink.com 1.10,2013-03-10 20:55:00,
2013-03-10 16:10:00,51.4,51.0,29.47,SW,230,0.0,-999.0,100,-99.99,,,0.89,weatherlink.com 1.10,2013-03-10 21:10:00,
2013-03-10 16:25:00,50.8,51.0,29.47,SSW,211,0.0,-999.0,100,-99.99,,,0.89,weatherlink.com 1.10,2013-03-10 21:25:00,
2013-03-10 16:40:00,50.7,51.0,29.47,SW,216,0.0,-999.0,100,-99.99,,,0.89,weatherlink.com 1.10,2013-03-10 21:40:00,
2013-03-10 16:55:00,50.5,51.0,29.47,South,182,0.0,-999.0,100,-99.99,,,0.89,weatherlink.com 1.10,2013-03-10 21:55:00,
2013-03-10 17:10:00,50.8,51.0,29.46,South,182,0.0,-999.0,100,-99.99,,,0.89,weatherlink.com 1.10,2013-03-10 22:10:00,
2013-03-10 17:25:00,51.0,51.0,29.46,WSW,238,1.0,-999.0,100,-99.99,,,0.89,weatherlink.com 1.10,2013-03-10 22:25:00,
2013-03-10 17:40:00,51.1,51.0,29.46,South,180,1.0,-999.0,100,-99.99,,,0.89,weatherlink.com 1.10,2013-03-10 22:40:00,
2013-03-10 17:56:00,51.6,52.0,29.46,SSW,198,0.0,-999.0,100,-99.99,,,0.89,weatherlink.com 1.10,2013-03-10 22:56:00,
2013-03-10 18:11:00,51.4,51.0,29.47,SSW,211,0.0,-999.0,99,-99.99,,,0.89,weatherlink.com 1.10,2013-03-10 23:11:00,
2013-03-10 18:26:00,51.3,51.0,29.47,SSW,211,0.0,-999.0,99,-99.99,,,0.89,weatherlink.com 1.10,2013-03-10 23:26:00,
2013-03-10 19:26:00,50.1,50.0,29.48,SSW,211,0.0,-999.0,99,-99.99,,,0.89,weatherlink.com 1.10,2013-03-11 00:26:00,
2013-03-10 19:41:00,50.1,50.0,29.48,SSW,211,0.0,-999.0,100,-99.99,,,0.89,weatherlink.com 1.10,2013-03-11 00:41:00,
2013-03-10 19:56:00,50.5,51.0,29.49,SSW,211,0.0,-999.0,100,-99.99,,,0.89,weatherlink.com 1.10,2013-03-11 00:56:00,
2013-03-10 20:11:00,49.5,49.0,29.50,North,9,2.0,-999.0,99,-99.99,,,1.01,weatherlink.com 1.10,2013-03-11 01:11:00,
2013-03-10 20:26:00,47.9,48.0,29.52,WSW,246,0.0,-999.0,99,-99.99,,,1.02,weatherlink.com 1.10,2013-03-11 01:26:00,
2013-03-10 20:41:00,47.6,48.0,29.52,SSW,205,3.0,-999.0,100,-99.99,,,1.03,weatherlink.com 1.10,2013-03-11 01:41:00,
2013-03-10 20:57:00,47.6,48.0,29.53,WNW,288,2.0,-999.0,100,-99.99,,,1.03,weatherlink.com 1.10,2013-03-11 01:57:00,
2013-03-10 21:12:00,46.7,45.0,29.54,SW,232,3.0,-999.0,94,-99.99,,,1.03,weatherlink.com 1.10,2013-03-11 02:12:00,
2013-03-10 21:27:00,46.4,44.0,29.54,West,275,4.0,-999.0,91,-99.99,,,1.03,weatherlink.com 1.10,2013-03-11 02:27:00,
2013-03-10 21:42:00,46.1,43.0,29.54,WSW,248,4.0,-999.0,90,-99.99,,,1.03,weatherlink.com 1.10,2013-03-11 02:42:00,
2013-03-10 21:57:00,45.7,42.0,29.54,SW,232,2.0,-999.0,88,-99.99,,,1.03,weatherlink.com 1.10,2013-03-11 02:57:00,
2013-03-10 22:12:00,45.2,43.0,29.55,SW,227,4.0,-999.0,90,-99.99,,,1.03,weatherlink.com 1.10,2013-03-11 03:12:00,
2013-03-10 22:27:00,45.1,42.0,29.56,SW,222,3.0,-999.0,89,-99.99,,,1.03,weatherlink.com 1.10,2013-03-11 03:27:00,
2013-03-10 22:42:00,44.8,42.0,29.55,SW,219,1.0,-999.0,90,-99.99,,,1.03,weatherlink.com 1.10,2013-03-11 03:42:00,
2013-03-10 22:57:00,44.5,42.0,29.55,SW,219,0.0,-999.0,91,-99.99,,,1.03,weatherlink.com 1.10,2013-03-11 03:57:00,
2013-03-10 23:12:00,44.3,42.0,29.55,SW,219,0.0,-999.0,91,-99.99,,,1.03,weatherlink.com 1.10,2013-03-11 04:12:00,
2013-03-10 23:27:00,44.2,42.0,29.55,SW,230,0.0,-999.0,92,-99.99,,,1.03,weatherlink.com 1.10,2013-03-11 04:27:00,
2013-03-10 23:42:00,43.2,41.0,29.56,SW,232,2.0,-999.0,91,-99.99,,,1.03,weatherlink.com 1.10,2013-03-11 04:42:00,
2013-03-10 23:58:00,42.6,40.0,29.56,WNW,296,1.0,-999.0,91,-99.99,,,1.03,weatherlink.com 1.10,2013-03-11 04:58:00,